createdAt,value
2023-05-17T00:00:09.630Z,25.81
2023-05-17T00:01:09.652Z,25.81
2023-05-17T00:02:09.723Z,25.81
2023-05-17T00:03:09.842Z,25.82
2023-05-17T00:04:09.872Z,25.79
2023-05-17T00:05:09.896Z,25.84
2023-05-17T00:06:10.056Z,25.81
2023-05-17T00:07:10.005Z,25.81
2023-05-17T00:08:10.100Z,25.79
2023-05-17T00:09:10.145Z,25.82
2023-05-17T00:10:10.194Z,25.81
2023-05-17T00:11:10.252Z,25.79
2023-05-17T00:12:10.284Z,25.81
2023-05-17T00:13:10.384Z,25.81
2023-05-17T00:14:10.392Z,25.82
2023-05-17T00:15:10.535Z,25.81
2023-05-17T00:16:10.555Z,25.79
2023-05-17T00:17:10.585Z,25.82
2023-05-17T00:18:10.717Z,25.81
2023-05-17T00:19:10.972Z,25.79
2023-05-17T00:20:10.778Z,25.82
2023-05-17T00:21:10.835Z,25.81
2023-05-17T00:22:10.869Z,25.79
2023-05-17T00:23:10.930Z,25.79
2023-05-17T00:24:11.005Z,25.79
2023-05-17T00:25:11.102Z,25.81
2023-05-17T00:26:11.122Z,25.78
2023-05-17T00:27:11.172Z,25.79
2023-05-17T00:28:11.239Z,25.82
2023-05-17T00:29:11.279Z,25.81
2023-05-17T00:30:11.338Z,25.79
2023-05-17T00:31:11.478Z,25.82
2023-05-17T00:32:11.444Z,25.78
2023-05-17T00:33:11.531Z,25.78
2023-05-17T00:34:11.571Z,25.78
2023-05-17T00:35:11.751Z,25.79
2023-05-17T00:36:11.734Z,25.81
2023-05-17T00:37:11.749Z,25.79
2023-05-17T00:38:11.829Z,25.78
2023-05-17T00:39:11.871Z,25.78
2023-05-17T00:40:11.933Z,25.76
2023-05-17T00:41:12.077Z,25.78
2023-05-17T00:42:12.095Z,25.79
2023-05-17T00:43:12.123Z,25.79
2023-05-17T00:44:12.180Z,25.79
2023-05-17T00:45:12.256Z,25.79
2023-05-17T00:46:12.293Z,25.78
2023-05-17T00:47:12.394Z,25.79
2023-05-17T00:48:12.499Z,25.78
2023-05-17T00:49:12.499Z,25.81
2023-05-17T00:50:12.505Z,25.79
2023-05-17T00:51:12.599Z,25.76
2023-05-17T00:52:12.639Z,25.79
2023-05-17T00:53:12.677Z,25.79
2023-05-17T00:54:12.727Z,25.78
2023-05-17T00:55:12.815Z,25.79
2023-05-17T00:56:12.865Z,25.76
2023-05-17T00:57:12.928Z,25.79
2023-05-17T00:58:12.983Z,25.78
2023-05-17T00:59:13.031Z,25.79
2023-05-17T01:00:13.104Z,25.78
2023-05-17T01:01:13.149Z,25.78
2023-05-17T01:02:13.217Z,25.79
2023-05-17T01:03:13.431Z,25.78
2023-05-17T01:04:13.444Z,25.79
2023-05-17T01:05:13.370Z,25.78
2023-05-17T01:06:13.458Z,25.78
2023-05-17T01:07:13.502Z,25.76
2023-05-17T01:08:13.523Z,25.75
2023-05-17T01:09:13.645Z,25.79
2023-05-17T01:10:13.676Z,25.76
2023-05-17T01:11:13.680Z,25.78
2023-05-17T01:12:13.762Z,25.76
2023-05-17T01:13:13.818Z,25.78
2023-05-17T01:14:13.871Z,25.78
2023-05-17T01:15:13.954Z,25.78
2023-05-17T01:16:13.989Z,25.78
2023-05-17T01:17:14.066Z,25.76
2023-05-17T01:18:14.284Z,25.75
2023-05-17T01:19:14.255Z,25.75
2023-05-17T01:20:14.285Z,25.74
2023-05-17T01:21:14.249Z,25.75
2023-05-17T01:22:14.315Z,25.75
2023-05-17T01:23:14.422Z,25.78
2023-05-17T01:24:14.458Z,25.78
2023-05-17T01:25:14.503Z,25.79
2023-05-17T01:26:14.547Z,25.78
2023-05-17T01:27:14.572Z,25.78
2023-05-17T01:28:14.652Z,25.78
2023-05-17T01:29:14.715Z,25.76
2023-05-17T01:30:14.773Z,25.78
2023-05-17T01:31:14.853Z,25.78
2023-05-17T01:32:14.884Z,25.78
2023-05-17T01:33:15.009Z,25.74
2023-05-17T01:34:15.006Z,25.74
2023-05-17T01:35:15.043Z,25.78
2023-05-17T01:36:15.112Z,25.76
2023-05-17T01:37:15.198Z,25.78
2023-05-17T01:38:15.224Z,25.74
2023-05-17T01:39:15.304Z,25.78
2023-05-17T01:40:15.362Z,25.76
2023-05-17T01:41:15.371Z,25.75
2023-05-17T01:42:15.436Z,25.75
2023-05-17T01:43:15.525Z,25.75
2023-05-17T01:44:15.548Z,25.76
2023-05-17T01:45:15.600Z,25.75
2023-05-17T01:46:15.676Z,25.78
2023-05-17T01:47:15.730Z,25.75
2023-05-17T01:48:15.910Z,25.75
2023-05-17T01:49:15.832Z,25.75
2023-05-17T01:50:15.883Z,25.75
2023-05-17T01:51:16.046Z,25.75
2023-05-17T01:52:15.996Z,25.75
2023-05-17T01:53:16.098Z,25.78
2023-05-17T01:54:16.133Z,25.75
2023-05-17T01:55:16.149Z,25.75
2023-05-17T01:56:16.245Z,25.78
2023-05-17T01:57:16.296Z,25.75
2023-05-17T01:58:16.336Z,25.76
2023-05-17T01:59:16.398Z,25.75
2023-05-17T02:00:16.414Z,25.76
2023-05-17T02:01:16.475Z,25.76
2023-05-17T02:02:16.574Z,25.75
2023-05-17T02:03:16.610Z,25.76
2023-05-17T02:04:16.824Z,25.76
2023-05-17T02:05:16.829Z,25.76
2023-05-17T02:06:16.823Z,25.74
2023-05-17T02:07:16.939Z,25.76
2023-05-17T02:08:16.879Z,25.72
2023-05-17T02:09:16.981Z,25.74
2023-05-17T02:10:17.009Z,25.75
2023-05-17T02:11:17.064Z,25.76
2023-05-17T02:12:17.138Z,25.75
2023-05-17T02:13:17.185Z,25.75
2023-05-17T02:14:17.252Z,25.76
2023-05-17T02:15:17.309Z,25.76
2023-05-17T02:16:17.335Z,25.76
2023-05-17T02:17:17.442Z,25.76
2023-05-17T02:18:17.506Z,25.78
2023-05-17T02:19:17.610Z,25.78
2023-05-17T02:20:17.636Z,25.76
2023-05-17T02:21:18.255Z,25.75
2023-05-17T02:22:17.690Z,25.76
2023-05-17T02:23:17.844Z,25.75
2023-05-17T02:24:17.800Z,25.76
2023-05-17T02:25:17.892Z,25.76
2023-05-17T02:26:17.936Z,25.76
2023-05-17T02:27:18.131Z,25.75
2023-05-17T02:28:18.039Z,25.78
2023-05-17T02:29:18.090Z,25.75
2023-05-17T02:30:18.490Z,25.75
2023-05-17T02:31:18.238Z,25.78
2023-05-17T02:32:18.234Z,25.78
2023-05-17T02:33:18.395Z,25.75
2023-05-17T02:34:18.339Z,25.75
2023-05-17T02:35:18.468Z,25.75
2023-05-17T02:36:18.505Z,25.74
2023-05-17T02:37:18.638Z,25.75
2023-05-17T02:38:18.683Z,25.75
2023-05-17T02:39:18.785Z,25.71
2023-05-17T02:40:18.713Z,25.75
2023-05-17T02:41:18.815Z,25.74
2023-05-17T02:42:18.881Z,25.74
2023-05-17T02:43:18.913Z,25.75
2023-05-17T02:44:18.969Z,25.75
2023-05-17T02:45:19.024Z,25.75
2023-05-17T02:46:19.089Z,25.74
2023-05-17T02:47:19.192Z,25.72
2023-05-17T02:48:19.245Z,25.74
2023-05-17T02:49:19.287Z,25.74
2023-05-17T02:50:19.319Z,25.74
2023-05-17T02:51:19.337Z,25.74
2023-05-17T02:52:19.385Z,25.74
2023-05-17T02:53:19.490Z,25.75
2023-05-17T02:54:19.495Z,25.74
2023-05-17T02:55:19.716Z,25.74
2023-05-17T02:56:19.648Z,25.74
2023-05-17T02:57:19.752Z,25.74
2023-05-17T02:58:19.748Z,25.74
2023-05-17T02:59:19.870Z,25.75
2023-05-17T03:00:19.877Z,25.74
2023-05-17T03:01:19.942Z,25.72
2023-05-17T03:02:20.048Z,25.75
2023-05-17T03:03:20.207Z,25.75
2023-05-17T03:04:20.184Z,25.72
2023-05-17T03:05:20.190Z,25.74
2023-05-17T03:06:20.249Z,25.75
2023-05-17T03:07:20.378Z,25.72
2023-05-17T03:08:20.405Z,25.74
2023-05-17T03:09:20.468Z,25.72
2023-05-17T03:10:20.473Z,25.75
2023-05-17T03:11:20.731Z,25.75
2023-05-17T03:12:20.602Z,25.75
2023-05-17T03:13:20.662Z,25.74
2023-05-17T03:14:20.732Z,25.75
2023-05-17T03:15:20.830Z,25.74
2023-05-17T03:16:20.820Z,25.74
2023-05-17T03:17:20.897Z,25.74
2023-05-17T03:18:21.083Z,25.74
2023-05-17T03:19:21.056Z,25.74
2023-05-17T03:20:21.063Z,25.75
2023-05-17T03:21:21.109Z,25.74
2023-05-17T03:22:21.156Z,25.74
2023-05-17T03:23:21.234Z,25.74
2023-05-17T03:24:21.266Z,25.74
2023-05-17T03:25:21.315Z,25.74
2023-05-17T03:26:21.366Z,25.74
2023-05-17T03:27:21.553Z,25.74
2023-05-17T03:28:21.515Z,25.75
2023-05-17T03:29:21.602Z,25.74
2023-05-17T03:30:21.710Z,25.74
2023-05-17T03:31:21.699Z,25.74
2023-05-17T03:32:21.798Z,25.75
2023-05-17T03:33:21.898Z,25.72
2023-05-17T03:34:21.889Z,25.72
2023-05-17T03:35:21.894Z,25.74
2023-05-17T03:36:21.989Z,25.75
2023-05-17T03:37:22.052Z,25.74
2023-05-17T03:38:22.123Z,25.72
2023-05-17T03:39:22.148Z,25.74
2023-05-17T03:40:22.233Z,25.72
2023-05-17T03:41:22.333Z,25.71
2023-05-17T03:42:22.380Z,25.74
2023-05-17T03:43:22.584Z,25.71
2023-05-17T03:44:22.507Z,25.75
2023-05-17T03:45:22.550Z,25.72
2023-05-17T03:46:22.616Z,25.74
2023-05-17T03:47:22.737Z,25.74
2023-05-17T03:48:22.722Z,25.74
2023-05-17T03:49:22.788Z,25.71
2023-05-17T03:50:22.795Z,25.71
2023-05-17T03:51:22.876Z,25.71
2023-05-17T03:52:22.956Z,25.71
2023-05-17T03:53:23.027Z,25.72
2023-05-17T03:54:23.078Z,25.72
2023-05-17T03:55:23.113Z,25.74
2023-05-17T03:56:23.187Z,25.74
2023-05-17T03:57:23.248Z,25.72
2023-05-17T03:58:23.352Z,25.74
2023-05-17T03:59:23.513Z,25.74
2023-05-17T04:00:23.419Z,25.72
2023-05-17T04:01:23.473Z,25.72
2023-05-17T04:02:23.555Z,25.74
2023-05-17T04:03:23.727Z,25.72
2023-05-17T04:04:23.801Z,25.75
2023-05-17T04:05:23.735Z,25.74
2023-05-17T04:06:23.778Z,25.71
2023-05-17T04:07:23.842Z,25.71
2023-05-17T04:08:23.893Z,25.74
2023-05-17T04:09:23.917Z,25.75
2023-05-17T04:10:23.958Z,25.71
2023-05-17T04:11:24.075Z,25.72
2023-05-17T04:12:24.151Z,25.72
2023-05-17T04:13:24.235Z,25.72
2023-05-17T04:14:24.241Z,25.71
2023-05-17T04:15:24.393Z,25.72
2023-05-17T04:16:24.349Z,25.71
2023-05-17T04:17:24.430Z,25.68
2023-05-17T04:18:24.537Z,25.71
2023-05-17T04:19:24.702Z,25.69
2023-05-17T04:20:24.614Z,25.69
2023-05-17T04:21:24.660Z,25.71
2023-05-17T04:22:24.710Z,25.72
2023-05-17T04:23:24.778Z,25.71
2023-05-17T04:24:24.831Z,25.71
2023-05-17T04:25:24.867Z,25.69
2023-05-17T04:26:24.932Z,25.72
2023-05-17T04:27:25.003Z,25.71
2023-05-17T04:28:25.006Z,25.71
2023-05-17T04:29:25.054Z,25.68
2023-05-17T04:30:25.153Z,25.74
2023-05-17T04:31:25.302Z,25.71
2023-05-17T04:32:25.327Z,25.72
2023-05-17T04:33:25.460Z,25.69
2023-05-17T04:34:25.408Z,25.69
2023-05-17T04:35:25.428Z,25.71
2023-05-17T04:36:25.511Z,25.69
2023-05-17T04:37:25.589Z,25.71
2023-05-17T04:38:25.640Z,25.72
2023-05-17T04:39:25.657Z,25.71
2023-05-17T04:40:25.750Z,25.72
2023-05-17T04:41:25.782Z,25.72
2023-05-17T04:42:25.870Z,25.74
2023-05-17T04:43:25.900Z,25.71
2023-05-17T04:44:26.036Z,25.72
2023-05-17T04:45:26.105Z,25.71
2023-05-17T04:46:26.102Z,25.72
2023-05-17T04:47:26.355Z,25.74
2023-05-17T04:48:26.318Z,25.75
2023-05-17T04:49:26.321Z,25.74
2023-05-17T04:50:26.320Z,25.74
2023-05-17T04:51:26.376Z,25.72
2023-05-17T04:52:26.437Z,25.74
2023-05-17T04:53:26.506Z,25.74
2023-05-17T04:54:26.516Z,25.72
2023-05-17T04:55:26.793Z,25.75
2023-05-17T04:56:26.670Z,25.75
2023-05-17T04:57:26.729Z,25.72
2023-05-17T04:58:26.793Z,25.72
2023-05-17T04:59:26.906Z,25.72
2023-05-17T05:00:26.909Z,25.72
2023-05-17T05:01:27.006Z,25.74
2023-05-17T05:02:27.032Z,25.74
2023-05-17T05:03:27.137Z,25.74
2023-05-17T05:04:27.153Z,25.72
2023-05-17T05:05:27.326Z,25.71
2023-05-17T05:06:27.246Z,25.74
2023-05-17T05:07:27.318Z,25.71
2023-05-17T05:08:27.368Z,25.72
2023-05-17T05:09:27.434Z,25.71
2023-05-17T05:10:27.485Z,25.71
2023-05-17T05:11:27.484Z,25.71
2023-05-17T05:12:27.684Z,25.72
2023-05-17T05:13:27.604Z,25.71
2023-05-17T05:14:27.678Z,25.69
2023-05-17T05:15:27.948Z,25.72
2023-05-17T05:16:27.825Z,25.71
2023-05-17T05:17:27.881Z,25.71
2023-05-17T05:18:27.975Z,25.71
2023-05-17T05:19:28.136Z,25.72
2023-05-17T05:20:28.374Z,25.71
2023-05-17T05:21:28.066Z,25.69
2023-05-17T05:22:28.135Z,25.66
2023-05-17T05:23:28.147Z,25.71
2023-05-17T05:24:28.225Z,25.69
2023-05-17T05:25:28.384Z,25.69
2023-05-17T05:26:28.334Z,25.72
2023-05-17T05:27:28.348Z,25.71
2023-05-17T05:28:28.796Z,25.71
2023-05-17T05:29:28.645Z,25.72
2023-05-17T05:30:28.551Z,25.71
2023-05-17T05:31:28.589Z,25.71
2023-05-17T05:32:28.669Z,25.69
2023-05-17T05:33:28.678Z,25.72
2023-05-17T05:34:28.699Z,25.68
2023-05-17T05:35:29.328Z,25.69
2023-05-17T05:36:28.883Z,25.68
2023-05-17T05:37:28.891Z,25.61
2023-05-17T05:38:28.849Z,25.57
2023-05-17T05:39:28.821Z,25.51
2023-05-17T05:40:29.134Z,25.45
2023-05-17T05:41:28.919Z,25.31
2023-05-17T05:42:28.999Z,25.20
2023-05-17T05:43:28.959Z,25.18
2023-05-17T05:44:29.373Z,25.20
2023-05-17T05:45:29.118Z,25.20
2023-05-17T05:46:29.062Z,25.09
2023-05-17T05:47:29.312Z,25.21
2023-05-17T05:48:29.214Z,25.25
2023-05-17T05:49:29.105Z,25.24
2023-05-17T05:50:29.309Z,25.28
2023-05-17T05:51:29.232Z,25.32
2023-05-17T05:52:29.257Z,25.37
2023-05-17T05:53:29.146Z,25.40
2023-05-17T05:54:29.197Z,25.42
2023-05-17T05:55:29.183Z,25.46
2023-05-17T05:56:29.198Z,25.51
2023-05-17T05:57:29.166Z,25.55
2023-05-17T05:58:29.137Z,25.60
2023-05-17T05:59:29.253Z,25.64
2023-05-17T06:00:29.535Z,25.65
2023-05-17T06:01:29.381Z,25.69
2023-05-17T06:02:29.420Z,25.76
2023-05-17T06:03:29.555Z,25.81
2023-05-17T06:04:36.835Z,25.84
2023-05-17T06:05:30.558Z,25.88
2023-05-17T06:06:29.622Z,25.91
2023-05-17T06:07:29.572Z,25.93
2023-05-17T06:08:29.478Z,25.99
2023-05-17T06:09:29.564Z,26.00
2023-05-17T06:10:29.733Z,26.03
2023-05-17T06:11:29.478Z,26.08
2023-05-17T06:12:29.478Z,26.10
2023-05-17T06:13:29.520Z,26.13
2023-05-17T06:14:29.548Z,26.15
2023-05-17T06:15:29.463Z,26.16
2023-05-17T06:16:29.425Z,26.20
2023-05-17T06:17:29.531Z,26.22
2023-05-17T06:18:29.574Z,26.23
2023-05-17T06:19:29.566Z,26.26
2023-05-17T06:20:29.791Z,26.29
2023-05-17T06:21:29.548Z,26.26
2023-05-17T06:22:29.618Z,26.28
2023-05-17T06:23:29.653Z,26.25
2023-05-17T06:24:29.655Z,26.29
2023-05-17T06:25:29.627Z,26.33
2023-05-17T06:26:29.596Z,26.32
2023-05-17T06:27:29.681Z,26.28
2023-05-17T06:28:29.690Z,26.23
2023-05-17T06:29:29.688Z,26.20
2023-05-17T06:30:30.010Z,26.15
2023-05-17T06:31:30.634Z,26.10
2023-05-17T06:32:29.904Z,26.06
2023-05-17T06:33:29.944Z,26.02
2023-05-17T06:34:30.774Z,25.99
2023-05-17T06:35:33.007Z,25.95
2023-05-17T06:36:32.556Z,25.92
2023-05-17T06:37:30.035Z,25.84
2023-05-17T06:38:30.043Z,25.85
2023-05-17T06:39:30.068Z,25.81
2023-05-17T06:40:30.780Z,25.74
2023-05-17T06:41:30.072Z,25.75
2023-05-17T06:42:30.051Z,25.71
2023-05-17T06:43:30.060Z,25.76
2023-05-17T06:44:30.006Z,25.76
2023-05-17T06:45:30.019Z,25.78
2023-05-17T06:46:30.810Z,25.78
2023-05-17T06:47:30.968Z,25.78
2023-05-17T06:48:30.184Z,25.76
2023-05-17T06:49:30.031Z,25.76
2023-05-17T06:50:30.260Z,25.76
2023-05-17T06:51:30.015Z,25.75
2023-05-17T06:52:29.937Z,25.75
2023-05-17T06:53:29.914Z,25.75
2023-05-17T06:54:29.930Z,25.75
2023-05-17T06:55:31.768Z,25.76
2023-05-17T06:56:29.976Z,25.76
2023-05-17T06:57:29.884Z,25.79
2023-05-17T06:58:29.877Z,25.79
2023-05-17T06:59:29.894Z,25.81
2023-05-17T07:00:30.184Z,25.79
2023-05-17T07:01:30.805Z,25.79
2023-05-17T07:02:30.362Z,25.79
2023-05-17T07:03:29.921Z,25.78
2023-05-17T07:04:30.115Z,25.79
2023-05-17T07:05:30.513Z,25.76
2023-05-17T07:06:30.072Z,25.75
2023-05-17T07:07:29.927Z,25.72
2023-05-17T07:08:29.973Z,25.75
2023-05-17T07:09:30.137Z,25.72
2023-05-17T07:10:30.049Z,25.71
2023-05-17T07:11:30.161Z,25.69
2023-05-17T07:12:29.994Z,25.69
2023-05-17T07:13:30.939Z,25.68
2023-05-17T07:14:30.003Z,25.69
2023-05-17T07:15:30.414Z,25.69
2023-05-17T07:16:30.091Z,25.68
2023-05-17T07:17:30.143Z,25.68
2023-05-17T07:18:30.177Z,25.66
2023-05-17T07:19:30.123Z,25.71
2023-05-17T07:20:29.994Z,25.68
2023-05-17T07:21:30.025Z,25.68
2023-05-17T07:22:30.055Z,25.71
2023-05-17T07:23:30.054Z,25.68
2023-05-17T07:24:30.045Z,25.66
2023-05-17T07:25:30.312Z,25.68
2023-05-17T07:26:30.065Z,25.64
2023-05-17T07:27:30.214Z,25.65
2023-05-17T07:28:30.067Z,25.65
2023-05-17T07:29:30.033Z,25.61
2023-05-17T07:30:30.311Z,25.60
2023-05-17T07:31:30.023Z,25.61
2023-05-17T07:32:30.019Z,25.65
2023-05-17T07:33:30.003Z,25.66
2023-05-17T07:34:30.471Z,25.55
2023-05-17T07:35:30.229Z,25.66
2023-05-17T07:36:30.378Z,25.68
2023-05-17T07:37:30.124Z,25.69
2023-05-17T07:38:30.159Z,25.72
2023-05-17T07:39:30.147Z,25.72
2023-05-17T07:40:30.181Z,25.74
2023-05-17T07:41:30.804Z,25.74
2023-05-17T07:42:30.201Z,25.71
2023-05-17T07:43:30.470Z,25.71
2023-05-17T07:44:30.331Z,25.71
2023-05-17T07:45:30.513Z,25.74
2023-05-17T07:46:30.341Z,25.75
2023-05-17T07:47:30.398Z,25.81
2023-05-17T07:48:30.540Z,25.84
2023-05-17T07:49:30.537Z,25.88
2023-05-17T07:50:30.473Z,25.88
2023-05-17T07:51:30.548Z,25.84
2023-05-17T07:52:30.523Z,25.85
2023-05-17T07:53:30.667Z,25.84
2023-05-17T07:54:31.405Z,25.84
2023-05-17T07:55:30.787Z,25.82
2023-05-17T07:56:30.691Z,25.79
2023-05-17T07:57:31.430Z,25.78
2023-05-17T07:58:30.699Z,25.78
2023-05-17T07:59:30.702Z,25.75
2023-05-17T08:00:30.721Z,25.75
2023-05-17T08:01:30.744Z,25.79
2023-05-17T08:02:30.872Z,25.81
2023-05-17T08:03:30.925Z,25.85
2023-05-17T08:04:31.064Z,25.85
2023-05-17T08:05:31.691Z,25.89
2023-05-17T08:06:31.183Z,25.93
2023-05-17T08:07:31.396Z,25.96
2023-05-17T08:08:31.154Z,25.96
2023-05-17T08:09:31.185Z,26.00
2023-05-17T08:10:31.294Z,26.05
2023-05-17T08:11:32.014Z,26.08
2023-05-17T08:12:31.296Z,26.10
2023-05-17T08:13:31.296Z,26.16
2023-05-17T08:14:31.344Z,26.20
2023-05-17T08:15:31.500Z,26.25
2023-05-17T08:16:31.488Z,26.29
2023-05-17T08:17:31.437Z,26.29
2023-05-17T08:18:31.478Z,26.29
2023-05-17T08:19:32.544Z,26.36
2023-05-17T08:20:31.466Z,26.39
2023-05-17T08:21:31.471Z,26.40
2023-05-17T08:22:31.479Z,26.38
2023-05-17T08:23:31.517Z,26.39
2023-05-17T08:24:31.501Z,26.36
2023-05-17T08:25:31.685Z,26.36
2023-05-17T08:26:31.518Z,26.33
2023-05-17T08:27:31.584Z,26.20
2023-05-17T08:28:31.621Z,26.06
2023-05-17T08:29:31.598Z,25.91
2023-05-17T08:30:31.722Z,25.76
2023-05-17T08:31:31.825Z,25.61
2023-05-17T08:32:31.772Z,25.46
2023-05-17T08:33:31.863Z,25.31
2023-05-17T08:34:31.854Z,25.18
2023-05-17T08:35:32.006Z,25.09
2023-05-17T08:36:31.896Z,24.97
2023-05-17T08:37:31.909Z,24.89
2023-05-17T08:38:31.987Z,24.79
2023-05-17T08:39:31.878Z,24.70
2023-05-17T08:40:32.253Z,24.64
2023-05-17T08:41:32.850Z,24.50
2023-05-17T08:42:31.943Z,24.52
2023-05-17T08:43:31.934Z,24.53
2023-05-17T08:44:31.905Z,24.59
2023-05-17T08:45:32.015Z,24.64
2023-05-17T08:46:31.940Z,24.70
2023-05-17T08:47:32.020Z,24.76
2023-05-17T08:48:32.053Z,24.81
2023-05-17T08:49:32.075Z,24.89
2023-05-17T08:50:32.195Z,24.93
2023-05-17T08:51:32.209Z,25.00
2023-05-17T08:52:32.348Z,25.03
2023-05-17T08:53:32.301Z,25.09
2023-05-17T08:54:32.297Z,25.14
2023-05-17T08:55:32.409Z,25.18
2023-05-17T08:56:32.300Z,25.20
2023-05-17T08:57:32.327Z,25.28
2023-05-17T08:58:34.167Z,25.34
2023-05-17T08:59:33.443Z,25.41
2023-05-17T09:00:32.364Z,25.44
2023-05-17T09:01:33.303Z,25.49
2023-05-17T09:02:32.407Z,25.57
2023-05-17T09:03:32.564Z,25.61
2023-05-17T09:04:32.348Z,25.66
2023-05-17T09:05:32.346Z,25.71
2023-05-17T09:06:32.425Z,25.72
2023-05-17T09:07:32.289Z,25.78
2023-05-17T09:08:32.300Z,25.82
2023-05-17T09:09:32.249Z,25.85
2023-05-17T09:10:32.291Z,25.92
2023-05-17T09:11:32.312Z,25.92
2023-05-17T09:12:32.408Z,25.98
2023-05-17T09:13:32.530Z,25.98
2023-05-17T09:14:32.522Z,26.03
2023-05-17T09:15:32.559Z,26.00
2023-05-17T09:16:32.608Z,26.03
2023-05-17T09:17:32.639Z,25.99
2023-05-17T09:18:32.985Z,25.98
2023-05-17T09:19:32.879Z,25.98
2023-05-17T09:20:32.813Z,25.95
2023-05-17T09:21:32.880Z,25.98
2023-05-17T09:22:33.019Z,25.98
2023-05-17T09:23:32.999Z,25.98
2023-05-17T09:24:33.012Z,26.02
2023-05-17T09:25:33.056Z,26.02
2023-05-17T09:26:33.127Z,26.08
2023-05-17T09:27:33.150Z,26.08
2023-05-17T09:28:33.162Z,26.13
2023-05-17T09:29:33.232Z,26.12
2023-05-17T09:30:33.309Z,26.16
2023-05-17T09:31:33.329Z,26.10
2023-05-17T09:32:33.477Z,26.05
2023-05-17T09:33:33.597Z,26.13
2023-05-17T09:34:33.477Z,26.12
2023-05-17T09:35:33.551Z,26.06
2023-05-17T09:36:33.530Z,25.95
2023-05-17T09:37:33.534Z,25.91
2023-05-17T09:38:33.555Z,25.86
2023-05-17T09:39:33.533Z,25.84
2023-05-17T09:40:33.640Z,25.85
2023-05-17T09:41:33.578Z,25.84
2023-05-17T09:42:33.747Z,25.86
2023-05-17T09:43:33.669Z,25.91
2023-05-17T09:44:33.759Z,25.93
2023-05-17T09:45:33.766Z,25.96
2023-05-17T09:46:33.903Z,26.00
2023-05-17T09:47:33.953Z,26.03
2023-05-17T09:48:34.039Z,26.10
2023-05-17T09:49:33.928Z,26.15
2023-05-17T09:50:34.002Z,26.18
2023-05-17T09:51:33.998Z,26.20
2023-05-17T09:52:34.025Z,26.22
2023-05-17T09:53:34.863Z,26.25
2023-05-17T09:54:34.056Z,26.30
2023-05-17T09:55:34.056Z,26.35
2023-05-17T09:56:34.132Z,26.38
2023-05-17T09:57:34.151Z,26.39
2023-05-17T09:58:34.171Z,26.40
2023-05-17T09:59:34.253Z,26.43
2023-05-17T10:00:34.299Z,26.44
2023-05-17T10:01:34.110Z,26.42
2023-05-17T10:02:34.183Z,26.47
2023-05-17T10:03:34.270Z,26.50
2023-05-17T10:04:34.140Z,26.52
2023-05-17T10:05:34.260Z,26.52
2023-05-17T10:06:46.006Z,26.53
2023-05-17T10:07:35.129Z,26.57
2023-05-17T10:08:34.079Z,26.57
2023-05-17T10:09:34.128Z,26.60
2023-05-17T10:10:34.566Z,26.62
2023-05-17T10:11:34.299Z,26.60
2023-05-17T10:12:34.089Z,26.63
2023-05-17T10:13:34.148Z,26.63
2023-05-17T10:14:34.164Z,26.66
2023-05-17T10:15:34.063Z,26.66
2023-05-17T10:16:34.083Z,26.64
2023-05-17T10:17:34.081Z,26.64
2023-05-17T10:18:34.178Z,26.66
2023-05-17T10:19:34.578Z,26.64
2023-05-17T10:20:34.021Z,26.66
2023-05-17T10:21:34.032Z,26.64
2023-05-17T10:22:34.052Z,26.69
2023-05-17T10:23:34.028Z,26.67
2023-05-17T10:24:34.027Z,26.69
2023-05-17T10:25:34.525Z,26.67
2023-05-17T10:26:34.074Z,26.69
2023-05-17T10:27:33.991Z,26.70
2023-05-17T10:28:34.014Z,26.72
2023-05-17T10:29:33.968Z,26.73
2023-05-17T10:30:33.948Z,26.74
2023-05-17T10:31:33.991Z,26.77
2023-05-17T10:32:34.083Z,26.77
2023-05-17T10:33:34.040Z,26.79
2023-05-17T10:34:34.033Z,26.82
2023-05-17T10:35:33.942Z,26.83
2023-05-17T10:36:34.004Z,26.82
2023-05-17T10:37:33.927Z,26.79
2023-05-17T10:38:41.986Z,26.82
2023-05-17T10:39:34.962Z,26.80
2023-05-17T10:40:33.923Z,26.80
2023-05-17T10:41:33.972Z,26.83
2023-05-17T10:42:33.942Z,26.80
2023-05-17T10:43:33.963Z,26.83
2023-05-17T10:44:33.971Z,26.80
2023-05-17T10:45:34.002Z,26.80
2023-05-17T10:46:33.912Z,26.82
2023-05-17T10:47:34.081Z,26.82
2023-05-17T10:48:34.008Z,26.82
2023-05-17T10:49:34.073Z,26.82
2023-05-17T10:50:34.042Z,26.82
2023-05-17T10:51:34.117Z,26.84
2023-05-17T10:52:34.265Z,26.86
2023-05-17T10:53:34.260Z,26.87
2023-05-17T10:54:34.362Z,26.87
2023-05-17T10:55:34.449Z,26.86
2023-05-17T10:56:34.377Z,26.89
2023-05-17T10:57:49.335Z,26.86
2023-05-17T10:58:35.494Z,26.86
2023-05-17T10:59:34.583Z,26.87
2023-05-17T11:00:34.609Z,26.87
2023-05-17T11:01:34.450Z,26.89
2023-05-17T11:02:34.459Z,26.87
2023-05-17T11:03:34.384Z,26.90
2023-05-17T11:04:34.503Z,26.90
2023-05-17T11:05:34.424Z,26.93
2023-05-17T11:06:34.459Z,26.91
2023-05-17T11:07:34.437Z,26.94
2023-05-17T11:08:34.430Z,26.94
2023-05-17T11:09:34.365Z,26.93
2023-05-17T11:10:34.482Z,26.95
2023-05-17T11:11:34.463Z,26.95
2023-05-17T11:12:35.989Z,26.95
2023-05-17T11:13:34.454Z,26.95
2023-05-17T11:14:34.500Z,26.95
2023-05-17T11:15:34.593Z,26.97
2023-05-17T11:16:34.505Z,26.97
2023-05-17T11:17:34.551Z,27.00
2023-05-17T11:18:39.002Z,27.00
2023-05-17T11:19:34.944Z,27.03
2023-05-17T11:20:34.887Z,27.07
2023-05-17T11:21:34.413Z,27.05
2023-05-17T11:22:34.421Z,26.97
2023-05-17T11:23:35.404Z,26.94
2023-05-17T11:24:34.548Z,26.89
2023-05-17T11:25:34.528Z,26.82
2023-05-17T11:26:34.498Z,26.63
2023-05-17T11:27:34.609Z,26.49
2023-05-17T11:28:34.613Z,26.32
2023-05-17T11:29:34.695Z,26.23
2023-05-17T11:30:34.812Z,26.12
2023-05-17T11:31:34.781Z,25.99
2023-05-17T11:32:34.836Z,25.92
2023-05-17T11:33:34.941Z,25.82
2023-05-17T11:34:34.905Z,25.72
2023-05-17T11:35:34.930Z,25.65
2023-05-17T11:36:34.771Z,25.55
2023-05-17T11:37:34.831Z,25.45
2023-05-17T11:38:34.935Z,25.38
2023-05-17T11:39:34.998Z,25.31
2023-05-17T11:40:34.951Z,25.25
2023-05-17T11:41:35.068Z,25.22
2023-05-17T11:42:35.071Z,25.17
2023-05-17T11:43:35.181Z,25.15
2023-05-17T11:44:35.227Z,25.13
2023-05-17T11:45:35.235Z,25.06
2023-05-17T11:46:35.312Z,25.04
2023-05-17T11:47:35.444Z,25.00
2023-05-17T11:48:35.479Z,24.95
2023-05-17T11:49:36.745Z,24.91
2023-05-17T11:50:35.490Z,24.93
2023-05-17T11:51:35.549Z,24.91
2023-05-17T11:52:35.640Z,24.97
2023-05-17T11:53:35.665Z,24.98
2023-05-17T11:54:35.760Z,24.98
2023-05-17T11:55:35.784Z,25.09
2023-05-17T11:56:42.780Z,25.15
2023-05-17T11:57:37.837Z,25.22
2023-05-17T11:58:35.733Z,25.28
2023-05-17T11:59:35.791Z,25.30
2023-05-17T12:00:35.756Z,25.30
2023-05-17T12:01:35.766Z,25.31
2023-05-17T12:02:35.766Z,25.37
2023-05-17T12:03:36.442Z,25.40
2023-05-17T12:04:35.783Z,25.44
2023-05-17T12:05:35.742Z,25.41
2023-05-17T12:06:35.783Z,25.40
2023-05-17T12:07:35.736Z,25.45
2023-05-17T12:08:35.761Z,25.48
2023-05-17T12:09:35.729Z,25.49
2023-05-17T12:10:35.837Z,25.54
2023-05-17T12:11:35.670Z,25.60
2023-05-17T12:12:35.685Z,25.65
2023-05-17T12:13:35.693Z,25.71
2023-05-17T12:14:35.697Z,25.78
2023-05-17T12:15:35.616Z,25.84
2023-05-17T12:16:35.638Z,25.89
2023-05-17T12:17:35.824Z,25.93
2023-05-17T12:18:35.854Z,26.00
2023-05-17T12:19:35.676Z,26.08
2023-05-17T12:20:35.643Z,26.12
2023-05-17T12:21:35.626Z,26.16
2023-05-17T12:22:35.579Z,26.22
2023-05-17T12:23:35.608Z,26.23
2023-05-17T12:24:35.659Z,26.32
2023-05-17T12:25:35.604Z,26.33
2023-05-17T12:26:35.571Z,26.36
2023-05-17T12:27:35.539Z,26.42
2023-05-17T12:28:35.582Z,26.43
2023-05-17T12:29:35.524Z,26.44
2023-05-17T12:30:35.531Z,26.52
2023-05-17T12:31:35.534Z,26.54
2023-05-17T12:32:35.573Z,26.54
2023-05-17T12:33:35.615Z,26.56
2023-05-17T12:34:35.509Z,26.57
2023-05-17T12:35:35.550Z,26.57
2023-05-17T12:36:35.531Z,26.60
2023-05-17T12:37:35.481Z,26.63
2023-05-17T12:38:35.520Z,26.63
2023-05-17T12:39:35.455Z,26.63
2023-05-17T12:40:35.476Z,26.64
2023-05-17T12:41:35.463Z,26.67
2023-05-17T12:42:35.421Z,26.70
2023-05-17T12:43:35.472Z,26.69
2023-05-17T12:44:35.402Z,26.72
2023-05-17T12:45:35.426Z,26.72
2023-05-17T12:46:35.387Z,26.73
2023-05-17T12:47:35.503Z,26.74
2023-05-17T12:48:35.436Z,26.76
2023-05-17T12:49:35.416Z,26.76
2023-05-17T12:50:35.441Z,26.77
2023-05-17T12:51:35.353Z,26.80
2023-05-17T12:52:35.371Z,26.83